createdAt,value
2019-02-07T00:01:45.742Z,14.10
2019-02-07T00:04:15.231Z,13.20
2019-02-07T00:06:44.368Z,14.47
2019-02-07T00:09:14.987Z,13.60
2019-02-07T00:11:44.306Z,12.90
2019-02-07T00:14:14.152Z,14.00
2019-02-07T00:16:44.214Z,13.73
2019-02-07T00:19:14.976Z,14.20
2019-02-07T00:21:44.532Z,13.57
2019-02-07T00:24:15.448Z,14.07
2019-02-07T00:26:46.600Z,15.93
2019-02-07T00:29:15.970Z,15.93
2019-02-07T00:31:45.544Z,16.37
2019-02-07T00:34:16.438Z,15.80
2019-02-07T00:36:46.436Z,15.20
2019-02-07T00:39:16.496Z,14.60
2019-02-07T00:41:46.693Z,16.80
2019-02-07T00:44:16.502Z,13.93
2019-02-07T00:46:46.028Z,14.10
2019-02-07T00:49:15.790Z,14.03
2019-02-07T00:51:45.335Z,14.57
2019-02-07T00:54:15.490Z,13.90
2019-02-07T00:56:45.133Z,13.50
2019-02-07T00:59:16.072Z,13.03
2019-02-07T01:01:46.403Z,13.00
2019-02-07T01:04:16.456Z,12.80
2019-02-07T01:06:45.913Z,11.93
2019-02-07T01:09:15.214Z,13.50
2019-02-07T01:11:45.079Z,13.47
2019-02-07T01:14:15.108Z,13.27
2019-02-07T01:16:44.662Z,13.53
2019-02-07T01:19:15.326Z,13.13
2019-02-07T01:21:45.256Z,12.47
2019-02-07T01:24:15.316Z,11.93
2019-02-07T01:26:45.462Z,14.87
2019-02-07T01:29:15.820Z,14.53
2019-02-07T01:31:48.173Z,12.60
2019-02-07T01:34:20.270Z,14.10
2019-02-07T01:36:49.807Z,12.70
2019-02-07T01:39:19.727Z,12.90
2019-02-07T01:41:52.065Z,13.27
2019-02-07T01:44:21.881Z,14.43
2019-02-07T01:46:51.233Z,12.90
2019-02-07T01:49:21.701Z,13.33
2019-02-07T01:51:50.968Z,11.90
2019-02-07T01:54:20.807Z,12.47
2019-02-07T01:56:51.069Z,11.97
2019-02-07T01:59:20.451Z,12.97
2019-02-07T02:01:50.656Z,13.30
2019-02-07T02:04:20.878Z,12.67
2019-02-07T02:06:50.788Z,12.00
2019-02-07T02:09:20.202Z,12.07
2019-02-07T02:11:49.597Z,13.40
2019-02-07T02:14:19.686Z,12.20
2019-02-07T02:16:50.060Z,14.27
2019-02-07T02:19:19.900Z,12.67
2019-02-07T02:21:49.425Z,11.63
2019-02-07T02:24:19.273Z,12.43
2019-02-07T02:26:49.342Z,13.33
2019-02-07T02:29:18.649Z,13.07
2019-02-07T02:31:48.183Z,12.80
2019-02-07T02:34:17.797Z,13.20
2019-02-07T02:36:48.058Z,12.83
2019-02-07T02:39:17.653Z,12.83
2019-02-07T02:41:47.931Z,12.57
2019-02-07T02:44:18.341Z,12.40
2019-02-07T02:46:47.855Z,14.00
2019-02-07T02:49:17.199Z,13.53
2019-02-07T02:51:47.294Z,12.60
2019-02-07T02:54:34.855Z,15.53
2019-02-07T02:57:04.819Z,15.53
2019-02-07T02:59:34.972Z,14.80
2019-02-07T03:02:21.397Z,15.13
2019-02-07T03:04:59.797Z,13.40
2019-02-07T03:07:54.302Z,12.07
2019-02-07T03:10:34.297Z,11.70
2019-02-07T03:13:22.505Z,15.90
2019-02-07T03:16:02.468Z,14.23
2019-02-07T03:19:00.066Z,12.97
2019-02-07T03:21:52.612Z,14.17
2019-02-07T03:24:43.568Z,12.03
2019-02-07T03:27:35.321Z,14.63
2019-02-07T03:30:24.298Z,12.53
2019-02-07T03:33:11.649Z,13.07
2019-02-07T03:36:11.961Z,11.77
2019-02-07T03:38:59.264Z,13.57
2019-02-07T03:41:41.457Z,11.47
2019-02-07T03:44:43.830Z,12.50
2019-02-07T03:47:38.493Z,12.73
2019-02-07T03:50:33.427Z,13.47
2019-02-07T03:53:20.831Z,10.60
2019-02-07T03:56:10.408Z,10.80
2019-02-07T03:59:07.730Z,12.50
2019-02-07T04:02:14.894Z,9.73
2019-02-07T04:05:03.268Z,10.67
2019-02-07T04:07:55.695Z,12.27
2019-02-07T04:10:39.679Z,11.00
2019-02-07T04:13:26.410Z,10.03
2019-02-07T04:16:21.130Z,8.83
2019-02-07T04:19:12.329Z,11.50
2019-02-07T04:21:59.224Z,12.77
2019-02-07T04:24:46.271Z,10.63
2019-02-07T04:27:44.419Z,11.03
2019-02-07T04:30:33.487Z,8.63
2019-02-07T04:33:23.028Z,8.83
2019-02-07T04:36:30.005Z,7.10
2019-02-07T04:39:18.390Z,7.40
2019-02-07T04:42:16.022Z,8.00
2019-02-07T04:45:05.870Z,5.80
2019-02-07T04:47:53.547Z,5.70
2019-02-07T04:50:59.990Z,2.40
2019-02-07T04:53:44.171Z,3.00
2019-02-07T04:56:31.833Z,7.93
2019-02-07T04:59:14.471Z,9.40
2019-02-07T05:02:05.063Z,9.30
2019-02-07T05:04:46.178Z,10.53
2019-02-07T05:07:26.041Z,16.70
2019-02-07T05:10:24.815Z,20.67
2019-02-07T05:13:15.954Z,12.67
2019-02-07T05:16:10.875Z,13.70
2019-02-07T05:18:53.591Z,22.53
2019-02-07T05:21:52.703Z,18.17
2019-02-07T05:24:41.947Z,26.37
2019-02-07T05:27:28.291Z,24.43
2019-02-07T05:30:26.254Z,20.50
2019-02-07T05:33:06.521Z,21.00
2019-02-07T05:35:52.478Z,27.87
2019-02-07T05:38:40.182Z,29.90
2019-02-07T05:41:27.695Z,28.70
2019-02-07T05:44:14.730Z,29.53
2019-02-07T05:47:02.583Z,28.67
2019-02-07T05:49:51.689Z,34.27
2019-02-07T05:52:38.854Z,26.60
2019-02-07T05:55:40.185Z,30.30
2019-02-07T05:58:37.855Z,26.07
2019-02-07T06:01:36.246Z,35.50
2019-02-07T06:04:24.844Z,27.57
2019-02-07T06:07:22.075Z,34.60
2019-02-07T06:10:10.795Z,33.97
2019-02-07T06:13:05.877Z,32.30
2019-02-07T06:15:52.916Z,26.87
2019-02-07T06:18:36.799Z,24.50
2019-02-07T06:21:20.419Z,35.80
2019-02-07T06:24:07.293Z,27.53
2019-02-07T06:26:48.301Z,32.97
2019-02-07T06:29:34.343Z,29.97
2019-02-07T06:32:22.217Z,28.57
2019-02-07T06:35:11.059Z,28.30
2019-02-07T06:37:50.527Z,35.20
2019-02-07T06:40:39.488Z,28.10
2019-02-07T06:43:26.219Z,30.90
2019-02-07T06:46:05.749Z,37.10
2019-02-07T06:48:56.888Z,32.83
2019-02-07T06:51:45.274Z,30.63
2019-02-07T06:54:51.403Z,29.80
2019-02-07T06:57:38.624Z,32.13
2019-02-07T07:00:26.159Z,32.03
2019-02-07T07:03:06.267Z,35.47
2019-02-07T07:05:46.822Z,32.83
2019-02-07T07:08:36.085Z,35.23
2019-02-07T07:11:24.105Z,31.17
2019-02-07T07:14:27.622Z,31.07
2019-02-07T07:17:34.303Z,37.63
2019-02-07T07:20:25.832Z,24.03
2019-02-07T07:23:32.113Z,32.20
2019-02-07T07:26:18.833Z,40.43
2019-02-07T07:29:22.267Z,38.80
2019-02-07T07:32:28.745Z,30.43
2019-02-07T07:35:15.766Z,39.07
2019-02-07T07:37:57.288Z,34.23
2019-02-07T07:40:53.441Z,35.93
2019-02-07T07:43:32.655Z,39.43
2019-02-07T07:46:30.181Z,39.10
2019-02-07T07:49:21.303Z,37.50
2019-02-07T07:52:09.652Z,37.27
2019-02-07T07:54:53.425Z,31.13
2019-02-07T07:57:40.220Z,34.10
2019-02-07T08:00:28.509Z,30.10
2019-02-07T08:03:28.986Z,29.20
2019-02-07T08:06:11.519Z,34.30
2019-02-07T08:08:57.969Z,29.67
2019-02-07T08:11:51.991Z,31.40
2019-02-07T08:14:42.980Z,28.90
2019-02-07T08:17:29.938Z,32.67
2019-02-07T08:20:20.960Z,36.13
2019-02-07T08:23:01.343Z,32.80
2019-02-07T08:25:49.337Z,31.93
2019-02-07T08:28:36.002Z,22.60
2019-02-07T08:31:30.846Z,32.97
2019-02-07T08:34:18.878Z,24.03
2019-02-07T08:37:02.703Z,25.30
2019-02-07T08:39:48.595Z,24.53
2019-02-07T08:42:39.691Z,25.07
2019-02-07T08:45:29.369Z,24.20
2019-02-07T08:48:36.049Z,29.10
2019-02-07T08:51:36.574Z,24.03
2019-02-07T08:54:25.285Z,25.83
2019-02-07T08:57:14.203Z,20.50
2019-02-07T09:00:07.994Z,22.17
2019-02-07T09:02:51.754Z,17.40
2019-02-07T09:05:48.694Z,19.80
2019-02-07T09:08:42.844Z,18.87
2019-02-07T09:11:40.016Z,21.40
2019-02-07T09:14:37.031Z,17.30
2019-02-07T09:17:36.771Z,17.63
2019-02-07T09:20:15.779Z,19.80
2019-02-07T09:23:19.173Z,16.33
2019-02-07T09:26:07.523Z,16.60
2019-02-07T09:29:11.237Z,18.27
2019-02-07T09:31:59.405Z,17.40
2019-02-07T09:34:54.008Z,20.50
2019-02-07T09:37:48.547Z,21.00
2019-02-07T09:40:38.045Z,17.43
2019-02-07T09:43:16.795Z,13.90
2019-02-07T09:46:17.593Z,16.63
2019-02-07T09:49:11.645Z,16.42
2019-02-07T09:52:00.111Z,13.30
2019-02-07T09:54:48.410Z,18.00
2019-02-07T09:57:39.181Z,17.60
2019-02-07T10:00:35.219Z,13.23
2019-02-07T10:03:29.349Z,19.80
2019-02-07T10:06:26.604Z,25.63
2019-02-07T10:09:26.997Z,21.83
2019-02-07T10:12:27.353Z,14.77
2019-02-07T10:15:15.790Z,22.27
2019-02-07T10:18:19.091Z,14.73
2019-02-07T10:21:04.341Z,21.10
2019-02-07T10:23:41.729Z,20.47
2019-02-07T10:26:47.829Z,16.23
2019-02-07T10:29:34.429Z,18.70
2019-02-07T10:32:31.712Z,17.03
2019-02-07T10:35:09.959Z,19.33
2019-02-07T10:38:13.351Z,16.30
2019-02-07T10:41:08.255Z,20.53
2019-02-07T10:43:55.079Z,13.53
2019-02-07T10:46:41.949Z,15.97
2019-02-07T10:49:20.581Z,33.83
2019-02-07T10:52:15.076Z,13.63
2019-02-07T10:54:54.517Z,11.90
2019-02-07T10:57:42.986Z,13.40
2019-02-07T11:00:41.422Z,15.43
2019-02-07T11:03:32.668Z,14.37
2019-02-07T11:06:20.293Z,16.63
2019-02-07T11:09:17.342Z,17.03
2019-02-07T11:12:04.324Z,12.67
2019-02-07T11:14:55.291Z,15.87
2019-02-07T11:17:38.284Z,11.90
2019-02-07T11:20:39.801Z,15.83
2019-02-07T11:23:39.859Z,12.20
2019-02-07T11:26:24.565Z,15.30
2019-02-07T11:29:16.168Z,14.60
2019-02-07T11:32:03.304Z,12.93
2019-02-07T11:34:54.338Z,19.37
2019-02-07T11:37:45.356Z,14.93
2019-02-07T11:40:32.255Z,10.27
2019-02-07T11:43:10.624Z,13.07
2019-02-07T11:46:07.583Z,12.67
2019-02-07T11:48:50.791Z,12.23
2019-02-07T11:51:31.990Z,11.30
2019-02-07T11:54:26.051Z,10.63
2019-02-07T11:57:12.741Z,8.17
2019-02-07T11:59:59.164Z,9.90
2019-02-07T12:02:54.704Z,10.47
2019-02-07T12:05:42.682Z,7.73
2019-02-07T12:08:32.857Z,11.43
2019-02-07T12:11:20.546Z,9.17
2019-02-07T12:14:15.926Z,8.47
2019-02-07T12:17:07.166Z,13.07
2019-02-07T12:19:54.097Z,15.40
2019-02-07T12:22:40.741Z,8.00
2019-02-07T12:25:25.671Z,11.93
2019-02-07T12:28:12.630Z,12.60
2019-02-07T12:31:03.744Z,8.33
2019-02-07T12:33:41.784Z,8.57
2019-02-07T12:36:18.666Z,9.53
2019-02-07T12:39:12.719Z,7.30
2019-02-07T12:42:01.179Z,8.50
2019-02-07T12:44:47.064Z,10.77
2019-02-07T12:47:38.381Z,8.80
2019-02-07T12:50:31.186Z,9.60
2019-02-07T12:53:11.171Z,17.20
2019-02-07T12:56:05.381Z,9.20
2019-02-07T12:58:52.802Z,9.77
2019-02-07T13:01:48.317Z,12.63
2019-02-07T13:04:44.950Z,9.93
2019-02-07T13:07:36.112Z,10.60
2019-02-07T13:10:24.588Z,13.37
2019-02-07T13:13:13.476Z,8.93
2019-02-07T13:16:11.019Z,9.47
2019-02-07T13:18:58.388Z,9.50
2019-02-07T13:21:47.197Z,9.77
2019-02-07T13:24:35.727Z,12.27
2019-02-07T13:27:23.442Z,10.03
2019-02-07T13:30:21.153Z,13.00
2019-02-07T13:33:09.707Z,9.30
2019-02-07T13:35:57.048Z,11.57
2019-02-07T13:38:44.035Z,10.80
2019-02-07T13:41:31.048Z,12.00
2019-02-07T13:44:16.251Z,11.77
2019-02-07T13:47:10.524Z,10.77
2019-02-07T13:49:59.907Z,13.93
2019-02-07T13:52:47.650Z,11.00
2019-02-07T13:55:37.424Z,13.37
2019-02-07T13:58:24.516Z,15.07
2019-02-07T14:01:13.059Z,15.13
2019-02-07T14:04:12.069Z,11.87
2019-02-07T14:07:10.535Z,16.80
2019-02-07T14:10:04.891Z,12.00
2019-02-07T14:13:09.393Z,11.60
2019-02-07T14:16:13.179Z,9.17
2019-02-07T14:19:05.083Z,10.57
2019-02-07T14:21:52.616Z,10.97
2019-02-07T14:24:51.318Z,11.33
2019-02-07T14:27:42.517Z,11.30
2019-02-07T14:30:24.962Z,10.43
2019-02-07T14:33:28.550Z,9.70
2019-02-07T14:36:12.087Z,14.00
2019-02-07T14:39:10.230Z,9.87
2019-02-07T14:41:50.703Z,13.53
2019-02-07T14:44:33.728Z,9.13
2019-02-07T14:47:03.438Z,11.23
2019-02-07T14:49:33.105Z,11.73
2019-02-07T14:52:03.190Z,11.63
2019-02-07T14:54:32.834Z,11.60
2019-02-07T14:57:02.961Z,10.50
2019-02-07T14:59:32.204Z,12.73
2019-02-07T15:02:02.970Z,10.23
2019-02-07T15:04:33.098Z,10.03
2019-02-07T15:07:02.776Z,10.70
2019-02-07T15:09:31.875Z,14.73
2019-02-07T15:12:01.255Z,9.27
2019-02-07T15:14:30.511Z,14.57
2019-02-07T15:16:59.822Z,13.07
2019-02-07T15:19:30.638Z,10.13
2019-02-07T15:22:00.596Z,13.73
2019-02-07T15:24:30.063Z,13.27
2019-02-07T15:26:59.918Z,15.70
2019-02-07T15:29:30.215Z,17.17
2019-02-07T15:32:00.239Z,16.60
2019-02-07T15:34:29.585Z,16.97
2019-02-07T15:36:58.654Z,12.20
2019-02-07T15:39:28.335Z,18.33
2019-02-07T15:41:58.492Z,13.43
2019-02-07T15:44:28.305Z,12.83
2019-02-07T15:46:58.740Z,11.70
2019-02-07T15:49:28.850Z,10.93
2019-02-07T15:51:59.622Z,11.90
2019-02-07T15:54:29.854Z,12.50
2019-02-07T15:56:59.562Z,12.10
2019-02-07T15:59:37.871Z,15.53
2019-02-07T16:02:14.226Z,13.23
2019-02-07T16:04:45.948Z,9.30
2019-02-07T16:07:18.106Z,12.03
2019-02-07T16:09:47.412Z,6.80
2019-02-07T16:12:18.942Z,13.90
2019-02-07T16:14:48.282Z,10.60
2019-02-07T16:17:17.892Z,11.77
2019-02-07T16:19:47.291Z,9.93
2019-02-07T16:22:17.378Z,11.57
2019-02-07T16:24:47.297Z,11.03
2019-02-07T16:27:16.853Z,9.27
2019-02-07T16:29:47.243Z,15.17
2019-02-07T16:32:18.100Z,14.23
2019-02-07T16:34:47.760Z,10.67
2019-02-07T16:37:18.942Z,13.47
2019-02-07T16:39:49.780Z,13.00
2019-02-07T16:42:20.091Z,17.10
2019-02-07T16:44:49.977Z,12.17
2019-02-07T16:47:19.952Z,14.27
2019-02-07T16:49:50.492Z,10.50
2019-02-07T16:52:20.287Z,14.60
2019-02-07T16:54:50.795Z,12.37
2019-02-07T16:57:21.058Z,14.13
2019-02-07T16:59:50.798Z,17.57
2019-02-07T17:02:20.505Z,15.20
2019-02-07T17:04:50.753Z,13.30
2019-02-07T17:07:19.971Z,11.17
2019-02-07T17:09:49.741Z,10.90
2019-02-07T17:12:19.800Z,27.90
2019-02-07T17:14:49.659Z,16.80
2019-02-07T17:17:19.217Z,11.80
2019-02-07T17:19:48.695Z,12.50
2019-02-07T17:22:17.867Z,13.83
2019-02-07T17:24:48.090Z,14.73
2019-02-07T17:27:18.113Z,13.60
2019-02-07T17:29:48.959Z,10.37
2019-02-07T17:32:19.245Z,15.53
2019-02-07T17:34:50.648Z,14.97
2019-02-07T17:37:20.458Z,12.47
2019-02-07T17:39:51.706Z,12.33
2019-02-07T17:42:22.540Z,10.57
2019-02-07T17:44:51.917Z,13.53
2019-02-07T17:47:21.772Z,11.60
2019-02-07T17:49:53.950Z,11.80
2019-02-07T17:52:25.967Z,10.57
2019-02-07T17:54:55.649Z,14.17
2019-02-07T17:57:25.414Z,11.97
2019-02-07T17:59:54.954Z,11.40
2019-02-07T18:02:25.300Z,11.00
2019-02-07T18:04:55.164Z,14.27
2019-02-07T18:07:24.656Z,11.63
2019-02-07T18:09:54.637Z,12.53
2019-02-07T18:12:24.052Z,10.13
2019-02-07T18:14:53.964Z,10.50
2019-02-07T18:17:23.381Z,20.10
2019-02-07T18:19:52.839Z,13.80
2019-02-07T18:22:22.186Z,17.47
2019-02-07T18:24:51.464Z,12.27
2019-02-07T18:27:21.200Z,10.23
2019-02-07T18:29:50.316Z,10.37
2019-02-07T18:32:19.840Z,8.43
2019-02-07T18:34:49.253Z,17.50
2019-02-07T18:37:18.890Z,15.73
2019-02-07T18:39:48.046Z,13.73
2019-02-07T18:42:17.082Z,8.13
2019-02-07T18:44:46.562Z,11.50
2019-02-07T18:47:16.134Z,12.63
2019-02-07T18:49:45.214Z,10.07
2019-02-07T18:52:14.639Z,12.87
2019-02-07T18:54:44.096Z,8.40
2019-02-07T18:57:13.571Z,11.70
2019-02-07T18:59:43.090Z,8.10
2019-02-07T19:02:12.135Z,17.43
2019-02-07T19:04:41.126Z,15.30
2019-02-07T19:07:10.304Z,27.57
2019-02-07T19:09:39.811Z,13.63
2019-02-07T19:12:08.879Z,13.63
2019-02-07T19:14:38.076Z,8.27
2019-02-07T19:17:07.514Z,11.77
2019-02-07T19:19:36.541Z,14.63
2019-02-07T19:22:05.948Z,12.30
2019-02-07T19:24:35.236Z,12.47
2019-02-07T19:27:04.672Z,17.20
2019-02-07T19:29:34.518Z,10.80
2019-02-07T19:32:03.570Z,13.63
2019-02-07T19:34:32.688Z,17.97
2019-02-07T19:37:01.816Z,12.87
2019-02-07T19:39:31.154Z,13.73
2019-02-07T19:42:00.195Z,15.03
2019-02-07T19:44:29.807Z,14.00
2019-02-07T19:46:58.943Z,10.33
2019-02-07T19:49:28.635Z,10.47
2019-02-07T19:52:07.727Z,7.20
2019-02-07T19:54:28.529Z,10.80
2019-02-07T19:56:57.895Z,9.20
2019-02-07T19:59:27.221Z,11.77
2019-02-07T20:01:56.429Z,10.60
2019-02-07T20:04:25.730Z,5.73
2019-02-07T20:06:54.743Z,8.00
2019-02-07T20:09:24.304Z,8.87
2019-02-07T20:11:53.608Z,8.17
2019-02-07T20:14:22.911Z,8.37
2019-02-07T20:16:52.006Z,9.20
2019-02-07T20:19:21.346Z,9.27
2019-02-07T20:21:50.692Z,9.83
2019-02-07T20:24:19.726Z,6.63
2019-02-07T20:26:49.496Z,8.93
2019-02-07T20:29:18.513Z,5.00
2019-02-07T20:31:47.576Z,8.93
2019-02-07T20:34:17.057Z,8.30
2019-02-07T20:36:46.370Z,10.13
2019-02-07T20:39:15.952Z,9.60
2019-02-07T20:41:45.329Z,14.40
2019-02-07T20:44:14.401Z,7.80
2019-02-07T20:46:43.535Z,9.50
2019-02-07T20:49:12.673Z,11.13
2019-02-07T20:51:41.721Z,10.97
2019-02-07T20:54:13.890Z,9.20
2019-02-07T20:56:43.239Z,9.27
2019-02-07T20:59:12.654Z,12.07
2019-02-07T21:01:42.062Z,9.97
2019-02-07T21:04:11.130Z,9.43
2019-02-07T21:06:40.141Z,6.67
2019-02-07T21:09:10.588Z,9.00
2019-02-07T21:11:39.753Z,7.53
2019-02-07T21:14:08.807Z,7.03
2019-02-07T21:16:39.006Z,7.53
2019-02-07T21:19:08.417Z,10.40
2019-02-07T21:21:38.449Z,6.10
2019-02-07T21:24:08.793Z,6.10
2019-02-07T21:26:38.519Z,9.00
2019-02-07T21:29:07.725Z,9.13
2019-02-07T21:31:37.536Z,5.93
2019-02-07T21:34:07.075Z,8.67
2019-02-07T21:36:36.479Z,9.07
2019-02-07T21:39:10.106Z,7.03
2019-02-07T21:41:39.149Z,5.73
2019-02-07T21:44:08.538Z,9.27
2019-02-07T21:46:38.272Z,6.93
2019-02-07T21:49:07.723Z,7.27
2019-02-07T21:51:36.982Z,9.13
2019-02-07T21:54:06.286Z,7.30
2019-02-07T21:56:35.385Z,7.63
2019-02-07T21:59:04.963Z,9.03
2019-02-07T22:01:34.669Z,6.77
2019-02-07T22:04:04.075Z,10.77
2019-02-07T22:06:34.195Z,8.67
2019-02-07T22:09:04.983Z,10.10
2019-02-07T22:11:34.257Z,8.57
2019-02-07T22:14:03.757Z,8.90
2019-02-07T22:16:33.544Z,7.40
2019-02-07T22:19:03.552Z,8.40
2019-02-07T22:21:33.171Z,8.67
2019-02-07T22:24:02.750Z,8.33
2019-02-07T22:26:32.471Z,8.67
2019-02-07T22:29:01.769Z,7.57
2019-02-07T22:31:31.455Z,9.53
2019-02-07T22:34:00.989Z,9.47
2019-02-07T22:36:31.672Z,8.33
2019-02-07T22:39:01.330Z,5.90
2019-02-07T22:41:30.747Z,10.37
2019-02-07T22:43:59.832Z,7.70
2019-02-07T22:46:28.858Z,8.40
2019-02-07T22:48:58.405Z,4.30
2019-02-07T22:51:27.947Z,8.70
2019-02-07T22:53:57.056Z,8.23
2019-02-07T22:56:29.991Z,7.00
2019-02-07T22:58:59.035Z,9.03
2019-02-07T23:01:47.632Z,8.10
2019-02-07T23:04:17.599Z,10.30
2019-02-07T23:06:46.667Z,4.87
2019-02-07T23:09:18.722Z,6.90
2019-02-07T23:11:48.281Z,6.70
2019-02-07T23:14:17.903Z,9.57
2019-02-07T23:16:47.030Z,7.97
2019-02-07T23:19:16.387Z,11.43
2019-02-07T23:21:45.449Z,9.80
2019-02-07T23:24:14.624Z,9.90
2019-02-07T23:26:43.695Z,9.17
2019-02-07T23:29:14.101Z,8.10
2019-02-07T23:31:44.547Z,8.90
2019-02-07T23:34:14.193Z,7.93
2019-02-07T23:36:43.399Z,11.80
2019-02-07T23:39:13.041Z,9.87
2019-02-07T23:41:45.405Z,6.17
2019-02-07T23:44:15.219Z,8.50
2019-02-07T23:46:44.262Z,5.03
2019-02-07T23:49:13.809Z,8.23
2019-02-07T23:51:43.001Z,10.80
2019-02-07T23:54:12.537Z,8.30
2019-02-07T23:56:42.769Z,9.80
2019-02-07T23:59:11.720Z,7.90
